Time;durP1;ratioP1;P1;durP2;ratioP2;P2;SDS_P1;SDS_P2;PMS_P1;PMS_P2;Temp;Humidity;BMP_temperature;BMP_pressure;BME280_temperature;BME280_humidity;BME280_pressure;Samples;Min_cycle;Max_cycle;Signal;HPM_P1;HPM_P2
2022/07/07 00:02:40;;;;;;;6.60;3.40;;;;;;;;;;4955995;29;20043;-76
2022/07/07 00:05:26;;;;;;;5.72;3.60;;;;;;;;;;4955771;29;20039;-75
2022/07/07 00:08:11;;;;;;;9.48;3.88;;;;;;;;;;4941489;29;20047;-75
2022/07/07 00:10:57;;;;;;;5.00;3.55;;;;;;;;;;4955282;29;20487;-76
2022/07/07 00:13:42;;;;;;;7.47;3.50;;;;;;;;;;4955745;29;20055;-75
2022/07/07 00:16:28;;;;;;;4.22;3.60;;;;;;;;;;4955636;29;20047;-75
2022/07/07 00:19:14;;;;;;;4.32;3.50;;;;;;;;;;4955323;29;20488;-76
2022/07/07 00:22:03;;;;;;;8.90;3.78;;;;;;;;;;4955940;29;20043;-76
2022/07/07 00:24:48;;;;;;;6.15;4.07;;;;;;;;;;4955463;29;20051;-76
2022/07/07 00:27:33;;;;;;;6.78;3.85;;;;;;;;;;4955815;29;20485;-75
2022/07/07 00:30:19;;;;;;;5.43;3.92;;;;;;;;;;4955672;29;20039;-76
2022/07/07 00:33:05;;;;;;;9.15;4.63;;;;;;;;;;4955497;28;20039;-76
2022/07/07 00:35:51;;;;;;;5.38;4.07;;;;;;;;;;4959514;29;20039;-76
2022/07/07 00:38:36;;;;;;;7.30;3.80;;;;;;;;;;4959124;29;20047;-75
2022/07/07 00:41:21;;;;;;;9.82;4.72;;;;;;;;;;4959170;29;20481;-75
2022/07/07 00:44:12;;;;;;;6.00;4.43;;;;;;;;;;4959050;29;20513;-76
2022/07/07 00:46:58;;;;;;;8.23;5.03;;;;;;;;;;4959003;29;20043;-75
2022/07/07 00:49:43;;;;;;;5.70;4.28;;;;;;;;;;4959254;29;20043;-75
2022/07/07 00:52:28;;;;;;;7.97;4.70;;;;;;;;;;4958977;29;20047;-77
2022/07/07 00:55:14;;;;;;;7.70;4.10;;;;;;;;;;4959065;29;20047;-75
2022/07/07 00:58:00;;;;;;;8.60;4.28;;;;;;;;;;4959185;29;20047;-76
2022/07/07 01:00:46;;;;;;;6.05;4.45;;;;;;;;;;4958549;29;20051;-76
2022/07/07 01:03:32;;;;;;;7.05;4.57;;;;;;;;;;4959255;29;20043;-76
2022/07/07 01:06:18;;;;;;;4.85;4.00;;;;;;;;;;4958858;29;20043;-76
2022/07/07 01:09:04;;;;;;;5.68;4.03;;;;;;;;;;4958776;29;20043;-75
2022/07/07 01:11:54;;;;;;;6.75;4.78;;;;;;;;;;4959095;29;20047;-76
2022/07/07 01:14:39;;;;;;;10.23;4.65;;;;;;;;;;4958466;29;20043;-76
2022/07/07 01:17:25;;;;;;;6.97;4.95;;;;;;;;;;4958939;29;20481;-75
2022/07/07 01:20:13;;;;;;;9.20;4.90;;;;;;;;;;4958634;29;20043;-75
2022/07/07 01:22:58;;;;;;;6.75;5.60;;;;;;;;;;4958516;29;20485;-75
2022/07/07 01:25:43;;;;;;;6.63;4.32;;;;;;;;;;4958746;29;20043;-75
2022/07/07 01:28:29;;;;;;;7.35;4.75;;;;;;;;;;4958459;29;20055;-76
2022/07/07 01:31:14;;;;;;;7.65;4.80;;;;;;;;;;4958185;29;20036;-75
2022/07/07 01:33:59;;;;;;;6.07;4.70;;;;;;;;;;4958437;29;20473;-76
2022/07/07 01:36:45;;;;;;;7.78;3.97;;;;;;;;;;4958279;29;20039;-76
2022/07/07 01:39:30;;;;;;;9.80;4.70;;;;;;;;;;4958719;29;20043;-76
2022/07/07 01:42:16;;;;;;;8.88;4.55;;;;;;;;;;4958032;29;20047;-76
2022/07/07 01:45:02;;;;;;;7.22;4.53;;;;;;;;;;4957428;28;20043;-76
2022/07/07 01:47:47;;;;;;;4.55;4.05;;;;;;;;;;4958229;29;20051;-75
2022/07/07 01:50:33;;;;;;;6.10;4.65;;;;;;;;;;4958011;29;20039;-76
2022/07/07 01:53:19;;;;;;;8.15;3.58;;;;;;;;;;4958380;29;20043;-76
2022/07/07 01:56:05;;;;;;;5.93;4.03;;;;;;;;;;4958082;29;20043;-75
2022/07/07 01:58:51;;;;;;;7.93;4.35;;;;;;;;;;4957710;29;20051;-77
2022/07/07 02:01:36;;;;;;;5.93;4.43;;;;;;;;;;4958006;29;20055;-77
2022/07/07 02:04:22;;;;;;;8.52;4.20;;;;;;;;;;4957613;29;20047;-76
2022/07/07 02:07:08;;;;;;;7.57;4.20;;;;;;;;;;4964406;28;20047;-76
2022/07/07 02:09:53;;;;;;;4.82;4.07;;;;;;;;;;4964374;28;20047;-75
2022/07/07 02:12:38;;;;;;;6.93;4.07;;;;;;;;;;4957671;29;20047;-76
2022/07/07 02:15:25;;;;;;;5.82;3.95;;;;;;;;;;4957748;29;20043;-76
2022/07/07 02:18:10;;;;;;;6.57;3.70;;;;;;;;;;4957459;29;20043;-76
2022/07/07 02:20:56;;;;;;;6.60;3.90;;;;;;;;;;4957208;29;20055;-76
2022/07/07 02:23:45;;;;;;;4.75;3.47;;;;;;;;;;4957350;29;20059;-76
2022/07/07 02:26:33;;;;;;;3.78;3.47;;;;;;;;;;4957342;29;20047;-76
2022/07/07 02:29:19;;;;;;;6.38;3.70;;;;;;;;;;4957353;29;20477;-76
2022/07/07 02:32:05;;;;;;;7.47;3.50;;;;;;;;;;4957244;29;20047;-77
2022/07/07 02:34:50;;;;;;;4.95;3.55;;;;;;;;;;4957313;29;20047;-76
2022/07/07 02:37:36;;;;;;;5.00;3.83;;;;;;;;;;4957135;29;20047;-75
2022/07/07 02:40:21;;;;;;;5.55;3.80;;;;;;;;;;4956915;29;20043;-76
2022/07/07 02:43:12;;;;;;;4.75;3.58;;;;;;;;;;4957238;29;20077;-76
2022/07/07 02:45:58;;;;;;;6.10;4.07;;;;;;;;;;4957091;29;20043;-76
2022/07/07 02:48:43;;;;;;;7.45;5.25;;;;;;;;;;4957010;29;20043;-76
2022/07/07 02:51:29;;;;;;;10.98;7.15;;;;;;;;;;4956970;29;20043;-76
2022/07/07 02:54:14;;;;;;;15.18;11.77;;;;;;;;;;4956802;29;20047;-76
2022/07/07 02:57:00;;;;;;;19.25;13.48;;;;;;;;;;4957044;28;20047;-76
2022/07/07 02:59:45;;;;;;;18.30;12.57;;;;;;;;;;4963205;28;20043;-76
2022/07/07 03:02:31;;;;;;;15.10;10.10;;;;;;;;;;4956688;29;20039;-76
2022/07/07 03:05:16;;;;;;;15.18;9.80;;;;;;;;;;4956764;29;20047;-76
2022/07/07 03:08:03;;;;;;;14.90;8.63;;;;;;;;;;4956579;29;20043;-76
2022/07/07 03:10:48;;;;;;;11.60;7.88;;;;;;;;;;4956669;29;20484;-76
2022/07/07 03:13:33;;;;;;;7.72;6.43;;;;;;;;;;4956604;29;20051;-76
2022/07/07 03:16:19;;;;;;;5.70;5.10;;;;;;;;;;4956320;29;20055;-77
2022/07/07 03:19:04;;;;;;;6.30;4.90;;;;;;;;;;4956721;29;20050;-76
2022/07/07 03:21:50;;;;;;;6.22;5.07;;;;;;;;;;4956306;29;20043;-77
2022/07/07 03:24:36;;;;;;;6.20;4.78;;;;;;;;;;4956353;29;20051;-76
2022/07/07 03:27:21;;;;;;;6.97;4.90;;;;;;;;;;4956334;29;20047;-76
2022/07/07 03:30:08;;;;;;;9.00;4.50;;;;;;;;;;4956304;29;20047;-76
2022/07/07 03:32:53;;;;;;;9.27;4.80;;;;;;;;;;4956415;29;20047;-75
2022/07/07 03:35:40;;;;;;;6.78;4.70;;;;;;;;;;4956244;29;20051;-76
2022/07/07 03:38:24;;;;;;;6.55;3.92;;;;;;;;;;4955760;29;20043;-76
2022/07/07 03:41:09;;;;;;;8.73;3.80;;;;;;;;;;4955960;28;20397;-75
2022/07/07 03:43:55;;;;;;;6.07;3.88;;;;;;;;;;4955746;29;20489;-75
2022/07/07 03:46:40;;;;;;;8.85;3.70;;;;;;;;;;4956020;29;20039;-76
2022/07/07 03:49:26;;;;;;;6.80;3.70;;;;;;;;;;4956025;29;20055;-76
2022/07/07 03:52:11;;;;;;;4.10;3.45;;;;;;;;;;4955850;29;20473;-76
2022/07/07 03:54:57;;;;;;;6.03;3.42;;;;;;;;;;4955798;29;20047;-75
2022/07/07 03:57:43;;;;;;;5.90;3.50;;;;;;;;;;4955327;29;20051;-76
2022/07/07 04:00:29;;;;;;;6.45;3.67;;;;;;;;;;4955728;29;20047;-76
2022/07/07 04:03:15;;;;;;;6.05;3.92;;;;;;;;;;4955637;29;20051;-76
2022/07/07 04:06:00;;;;;;;8.48;4.07;;;;;;;;;;4953768;29;20047;-76
2022/07/07 04:08:46;;;;;;;7.95;4.28;;;;;;;;;;4954216;28;20063;-76
2022/07/07 04:11:32;;;;;;;9.65;4.28;;;;;;;;;;4954814;29;20039;-76
2022/07/07 04:14:17;;;;;;;9.98;4.28;;;;;;;;;;4954014;29;20047;-76
2022/07/07 04:17:03;;;;;;;10.65;4.30;;;;;;;;;;4955648;29;20043;-76
2022/07/07 04:19:48;;;;;;;4.25;3.85;;;;;;;;;;4955410;29;20043;-77
2022/07/07 04:22:34;;;;;;;13.30;4.60;;;;;;;;;;4955198;29;20043;-76
2022/07/07 04:25:21;;;;;;;6.03;3.83;;;;;;;;;;4955324;29;20139;-76
2022/07/07 04:28:07;;;;;;;5.75;4.00;;;;;;;;;;4961737;28;20050;-77
2022/07/07 04:30:53;;;;;;;7.18;4.10;;;;;;;;;;4955388;29;20047;-76
2022/07/07 04:33:38;;;;;;;6.32;3.50;;;;;;;;;;4955308;29;20051;-76
2022/07/07 04:36:24;;;;;;;6.25;3.40;;;;;;;;;;4955371;29;20051;-76
2022/07/07 04:39:10;;;;;;;4.65;3.17;;;;;;;;;;4955437;29;20039;-76
2022/07/07 04:41:55;;;;;;;8.98;4.07;;;;;;;;;;4955025;29;20051;-76
2022/07/07 04:44:40;;;;;;;5.38;3.17;;;;;;;;;;4954904;29;20051;-76
2022/07/07 04:47:26;;;;;;;5.07;2.90;;;;;;;;;;4940881;29;20047;-76
2022/07/07 04:50:13;;;;;;;7.05;3.03;;;;;;;;;;4955294;29;20047;-75
2022/07/07 04:52:58;;;;;;;7.78;4.30;;;;;;;;;;4955542;29;20047;-76
2022/07/07 04:55:44;;;;;;;6.82;3.65;;;;;;;;;;4955209;29;20047;-77
2022/07/07 04:58:30;;;;;;;9.30;3.95;;;;;;;;;;4961621;29;20047;-77
2022/07/07 05:01:15;;;;;;;7.15;3.40;;;;;;;;;;4955171;29;20051;-77
2022/07/07 05:04:01;;;;;;;6.57;3.47;;;;;;;;;;4954758;29;20043;-76
2022/07/07 05:06:46;;;;;;;8.00;3.25;;;;;;;;;;4955162;29;20047;-76
2022/07/07 05:09:34;;;;;;;7.47;2.90;;;;;;;;;;4955219;29;20042;-76
2022/07/07 05:12:20;;;;;;;7.15;3.20;;;;;;;;;;4956239;29;20043;-76
2022/07/07 05:15:06;;;;;;;11.55;2.92;;;;;;;;;;4955164;29;20047;-77
2022/07/07 05:17:51;;;;;;;4.78;3.00;;;;;;;;;;4954879;29;20043;-76
2022/07/07 05:20:37;;;;;;;7.43;3.10;;;;;;;;;;4948192;28;20051;-76
2022/07/07 05:23:25;;;;;;;7.55;2.80;;;;;;;;;;4958410;29;20039;-76
2022/07/07 05:26:10;;;;;;;7.43;2.85;;;;;;;;;;4958479;29;20051;-77
2022/07/07 05:28:56;;;;;;;5.03;2.83;;;;;;;;;;4965139;28;20051;-77
2022/07/07 05:31:42;;;;;;;4.45;2.80;;;;;;;;;;4958206;29;20039;-77
2022/07/07 05:34:27;;;;;;;4.95;2.63;;;;;;;;;;4958262;29;20044;-76
2022/07/07 05:37:13;;;;;;;3.30;2.50;;;;;;;;;;4958556;29;20397;-77
2022/07/07 05:39:58;;;;;;;3.60;2.70;;;;;;;;;;4958238;29;20051;-76
2022/07/07 05:42:44;;;;;;;6.18;3.00;;;;;;;;;;4958074;29;20051;-77
2022/07/07 05:45:29;;;;;;;6.63;2.90;;;;;;;;;;4957885;29;20043;-77
2022/07/07 05:48:15;;;;;;;4.78;2.90;;;;;;;;;;4958088;29;20436;-76
2022/07/07 05:51:01;;;;;;;4.80;2.85;;;;;;;;;;4957995;29;20035;-76
2022/07/07 05:53:46;;;;;;;6.32;3.00;;;;;;;;;;4964291;28;20051;-76
2022/07/07 05:56:32;;;;;;;5.22;2.70;;;;;;;;;;4958018;29;20047;-76
2022/07/07 05:59:17;;;;;;;2.75;2.42;;;;;;;;;;4957856;29;20477;-76
2022/07/07 06:02:03;;;;;;;7.07;2.47;;;;;;;;;;4957705;29;20424;-76
2022/07/07 06:04:49;;;;;;;5.43;2.40;;;;;;;;;;4957862;29;20047;-77
2022/07/07 06:07:34;;;;;;;8.13;2.88;;;;;;;;;;4957415;29;20039;-76
2022/07/07 06:10:19;;;;;;;6.18;2.97;;;;;;;;;;4957705;29;20101;-77
2022/07/07 06:13:05;;;;;;;6.05;2.90;;;;;;;;;;4957402;29;20035;-75
2022/07/07 06:15:50;;;;;;;7.93;2.67;;;;;;;;;;4957383;29;20047;-75
2022/07/07 06:18:35;;;;;;;7.25;2.42;;;;;;;;;;4957316;29;20401;-75
2022/07/07 06:21:21;;;;;;;6.22;2.55;;;;;;;;;;4957068;29;20052;-76
2022/07/07 06:24:07;;;;;;;5.90;2.72;;;;;;;;;;4958251;29;20047;-76
2022/07/07 06:26:53;;;;;;;6.13;2.40;;;;;;;;;;4957492;29;20401;-76
2022/07/07 06:29:38;;;;;;;7.55;2.20;;;;;;;;;;4949202;28;20039;-76
2022/07/07 06:32:24;;;;;;;6.60;2.50;;;;;;;;;;4957044;28;20043;-75
2022/07/07 06:35:10;;;;;;;4.07;2.00;;;;;;;;;;4956925;29;20401;-76
2022/07/07 06:37:57;;;;;;;5.97;2.30;;;;;;;;;;4957441;29;20047;-75
2022/07/07 06:40:42;;;;;;;2.67;2.13;;;;;;;;;;4957047;29;20039;-76
2022/07/07 06:43:28;;;;;;;2.83;1.88;;;;;;;;;;4956641;29;20051;-75
2022/07/07 06:46:14;;;;;;;3.15;1.33;;;;;;;;;;4957110;29;20042;-76
2022/07/07 06:48:59;;;;;;;3.42;1.70;;;;;;;;;;4956943;29;20047;-80
2022/07/07 06:51:45;;;;;;;5.70;1.88;;;;;;;;;;4956843;29;20039;-78
2022/07/07 06:54:30;;;;;;;9.77;1.90;;;;;;;;;;4956830;29;20047;-76
2022/07/07 06:57:16;;;;;;;3.42;1.90;;;;;;;;;;4956430;29;20043;-78
2022/07/07 07:00:01;;;;;;;4.25;2.08;;;;;;;;;;4956665;29;20043;-76
2022/07/07 07:02:48;;;;;;;5.28;2.10;;;;;;;;;;4956362;29;20055;-76
2022/07/07 07:05:34;;;;;;;3.05;1.85;;;;;;;;;;4962741;28;20046;-76
2022/07/07 07:08:20;;;;;;;5.25;2.10;;;;;;;;;;4956528;29;20047;-75
2022/07/07 07:11:06;;;;;;;2.90;1.90;;;;;;;;;;4956278;29;20047;-76
2022/07/07 07:13:52;;;;;;;5.10;2.15;;;;;;;;;;4956872;29;20051;-75
2022/07/07 07:16:37;;;;;;;6.38;2.00;;;;;;;;;;4956603;29;20047;-75
2022/07/07 07:19:22;;;;;;;7.13;2.38;;;;;;;;;;4956451;29;20047;-76
2022/07/07 07:22:08;;;;;;;2.08;1.80;;;;;;;;;;4956728;29;20051;-76
2022/07/07 07:24:53;;;;;;;5.45;2.42;;;;;;;;;;4962356;28;20039;-76
2022/07/07 07:27:39;;;;;;;4.95;2.10;;;;;;;;;;4956132;29;20047;-76
2022/07/07 07:30:24;;;;;;;6.60;2.10;;;;;;;;;;4956224;29;20055;-76
2022/07/07 07:33:09;;;;;;;5.13;2.33;;;;;;;;;;4962181;28;20043;-76
2022/07/07 07:35:55;;;;;;;4.22;2.10;;;;;;;;;;4956242;29;20046;-77
2022/07/07 07:38:43;;;;;;;4.97;1.98;;;;;;;;;;4962093;28;20393;-75
2022/07/07 07:41:28;;;;;;;3.70;1.90;;;;;;;;;;4955957;29;20047;-76
2022/07/07 07:45:09;;;;;;;6.45;2.10;;;;;;;;;;4955189;28;20051;-75
2022/07/07 07:47:19;;;;;;;2.67;1.70;;;;;;;;;;4941615;29;20047;-76
2022/07/07 07:50:05;;;;;;;6.90;1.90;;;;;;;;;;4955848;29;20043;-76
2022/07/07 07:52:51;;;;;;;5.95;2.05;;;;;;;;;;4955609;29;20039;-77
2022/07/07 07:55:36;;;;;;;4.45;1.90;;;;;;;;;;4955881;29;20047;-77
2022/07/07 07:58:22;;;;;;;2.65;2.15;;;;;;;;;;4955864;29;20488;-76
2022/07/07 08:01:07;;;;;;;4.32;2.00;;;;;;;;;;4955395;29;20050;-76
2022/07/07 08:03:53;;;;;;;4.68;1.80;;;;;;;;;;4955736;29;20039;-77
2022/07/07 08:06:38;;;;;;;4.10;1.90;;;;;;;;;;4955529;29;20409;-76
2022/07/07 08:09:24;;;;;;;4.60;1.70;;;;;;;;;;4955625;29;20055;-76
2022/07/07 08:12:10;;;;;;;3.05;1.90;;;;;;;;;;4955537;29;20038;-76
2022/07/07 08:14:55;;;;;;;3.45;2.05;;;;;;;;;;4955334;29;20059;-76
2022/07/07 08:17:41;;;;;;;9.48;2.10;;;;;;;;;;4955483;29;20047;-75
2022/07/07 08:20:26;;;;;;;8.30;2.10;;;;;;;;;;4955514;29;20488;-75
2022/07/07 08:23:12;;;;;;;6.03;1.90;;;;;;;;;;4955020;29;20043;-76
2022/07/07 08:25:57;;;;;;;2.45;1.60;;;;;;;;;;4955344;29;20043;-76
2022/07/07 08:28:43;;;;;;;3.78;1.73;;;;;;;;;;4955041;29;20051;-76
2022/07/07 08:31:30;;;;;;;3.35;1.60;;;;;;;;;;4955419;29;20035;-75
2022/07/07 08:34:15;;;;;;;4.03;1.77;;;;;;;;;;4955354;29;20051;-76
2022/07/07 08:37:01;;;;;;;4.28;1.60;;;;;;;;;;4955236;29;20043;-75
2022/07/07 08:39:46;;;;;;;3.17;1.90;;;;;;;;;;4955312;29;20043;-76
2022/07/07 08:42:32;;;;;;;4.18;1.88;;;;;;;;;;4954537;29;20035;-76
2022/07/07 08:45:17;;;;;;;7.57;3.35;;;;;;;;;;4942520;29;20051;-76
2022/07/07 08:48:03;;;;;;;7.90;2.50;;;;;;;;;;4936057;29;20047;-76
2022/07/07 08:50:48;;;;;;;5.80;2.47;;;;;;;;;;4935855;29;20048;-75
2022/07/07 08:53:37;;;;;;;7.13;3.15;;;;;;;;;;4936097;29;20052;-75
2022/07/07 08:56:22;;;;;;;18.98;8.00;;;;;;;;;;4939727;29;20051;-76
2022/07/07 08:59:15;;;;;;;8.15;2.55;;;;;;;;;;4939824;29;20401;-75
2022/07/07 09:02:02;;;;;;;5.93;3.22;;;;;;;;;;4925365;29;20044;-75
2022/07/07 09:04:48;;;;;;;24.75;8.82;;;;;;;;;;4939674;29;20048;-74
2022/07/07 09:07:50;;;;;;;11.85;3.25;;;;;;;;;;4939612;29;20047;-76
2022/07/07 09:10:37;;;;;;;78.82;22.23;;;;;;;;;;4946207;29;20047;-77
2022/07/07 09:13:31;;;;;;;21.10;7.03;;;;;;;;;;4939457;29;20051;-75
2022/07/07 09:16:17;;;;;;;15.40;6.45;;;;;;;;;;4939706;29;20051;-75
2022/07/07 09:19:07;;;;;;;13.40;3.72;;;;;;;;;;4939378;29;20043;-75
2022/07/07 09:21:52;;;;;;;9.13;2.78;;;;;;;;;;4945581;29;20393;-75
2022/07/07 09:24:57;;;;;;;6.30;2.92;;;;;;;;;;4939236;29;20052;-75
2022/07/07 09:27:55;;;;;;;4.43;2.03;;;;;;;;;;4939147;29;20043;-76
2022/07/07 09:30:46;;;;;;;3.60;1.70;;;;;;;;;;4939307;29;20039;-75
2022/07/07 09:33:31;;;;;;;1.83;1.05;;;;;;;;;;4938741;29;20043;-75
2022/07/07 09:39:23;;;;;;;5.47;1.90;;;;;;;;;;4939343;29;20052;-77
2022/07/07 09:42:29;;;;;;;5.53;1.83;;;;;;;;;;4938898;29;20055;-76
2022/07/07 09:45:14;;;;;;;5.28;2.13;;;;;;;;;;4938871;29;20048;-75
2022/07/07 09:48:08;;;;;;;1.50;1.15;;;;;;;;;;4938682;29;20047;-75
2022/07/07 09:51:18;;;;;;;2.42;1.67;;;;;;;;;;4939023;29;20506;-76
2022/07/07 09:54:05;;;;;;;3.88;1.50;;;;;;;;;;4945259;29;20044;-76
2022/07/07 09:56:51;;;;;;;6.45;1.63;;;;;;;;;;4938847;29;20052;-76
2022/07/07 09:59:36;;;;;;;7.07;1.67;;;;;;;;;;4938981;29;20052;-76
2022/07/07 10:02:27;;;;;;;4.13;1.40;;;;;;;;;;4924388;29;20051;-76
2022/07/07 10:05:14;;;;;;;6.53;1.10;;;;;;;;;;4938768;29;20207;-76
2022/07/07 10:08:00;;;;;;;2.35;1.33;;;;;;;;;;4938186;29;20044;-76
2022/07/07 10:10:46;;;;;;;2.42;1.33;;;;;;;;;;4938600;29;20043;-77
2022/07/07 10:13:37;;;;;;;1.20;1.10;;;;;;;;;;4924362;29;20482;-76
2022/07/07 10:16:23;;;;;;;2.17;1.30;;;;;;;;;;4938370;29;20044;-76
2022/07/07 10:19:13;;;;;;;2.53;1.20;;;;;;;;;;4944445;29;20521;-75
2022/07/07 10:21:59;;;;;;;3.13;1.30;;;;;;;;;;4938103;29;20052;-76
2022/07/07 10:24:45;;;;;;;1.15;0.98;;;;;;;;;;4938234;29;20043;-76
2022/07/07 10:27:30;;;;;;;5.03;1.55;;;;;;;;;;4938195;29;20039;-75
2022/07/07 10:30:30;;;;;;;1.33;1.05;;;;;;;;;;4944532;29;20044;-75
2022/07/07 10:33:17;;;;;;;1.48;1.10;;;;;;;;;;4938082;29;20035;-75
2022/07/07 10:36:02;;;;;;;3.78;1.30;;;;;;;;;;4937789;29;20052;-76
2022/07/07 10:38:52;;;;;;;1.23;1.05;;;;;;;;;;4937974;29;20406;-74
2022/07/07 10:41:40;;;;;;;2.63;1.13;;;;;;;;;;4944119;29;20047;-74
2022/07/07 10:44:27;;;;;;;2.13;0.98;;;;;;;;;;4952390;29;20051;-76
2022/07/07 10:47:12;;;;;;;1.63;1.02;;;;;;;;;;4957022;29;20047;-75
2022/07/07 10:49:58;;;;;;;1.23;1.00;;;;;;;;;;4956986;29;20102;-77
2022/07/07 10:52:43;;;;;;;3.38;1.08;;;;;;;;;;4956866;29;20047;-76
2022/07/07 10:55:52;;;;;;;4.25;1.10;;;;;;;;;;4956934;29;20047;-75
2022/07/07 10:58:43;;;;;;;2.85;1.30;;;;;;;;;;4957173;29;20047;-76
2022/07/07 11:01:31;;;;;;;1.40;1.10;;;;;;;;;;4956731;29;20039;-76
2022/07/07 11:04:43;;;;;;;5.95;1.20;;;;;;;;;;4956582;29;20055;-76
2022/07/07 11:07:29;;;;;;;7.68;1.20;;;;;;;;;;4955381;29;20051;-78
2022/07/07 11:10:15;;;;;;;4.38;1.05;;;;;;;;;;4956683;29;20055;-75
2022/07/07 11:13:16;;;;;;;3.72;1.08;;;;;;;;;;4956663;29;20043;-76
2022/07/07 11:16:24;;;;;;;1.27;1.10;;;;;;;;;;4956329;29;20039;-75
2022/07/07 11:19:14;;;;;;;4.03;1.38;;;;;;;;;;4955509;28;20043;-76
2022/07/07 11:22:01;;;;;;;1.13;1.00;;;;;;;;;;4962640;28;20039;-77
2022/07/07 11:24:48;;;;;;;1.55;1.00;;;;;;;;;;4956456;29;20484;-76
2022/07/07 11:27:36;;;;;;;2.30;1.30;;;;;;;;;;4956583;29;20047;-77
2022/07/07 11:30:25;;;;;;;2.25;0.90;;;;;;;;;;4962605;28;20047;-76
2022/07/07 11:33:11;;;;;;;1.90;1.15;;;;;;;;;;4956264;29;20421;-76
2022/07/07 11:35:56;;;;;;;5.25;1.15;;;;;;;;;;4956275;29;20468;-77
2022/07/07 11:38:43;;;;;;;1.63;1.10;;;;;;;;;;4956065;29;20043;-76
2022/07/07 11:41:41;;;;;;;2.25;1.33;;;;;;;;;;4956154;29;20043;-76
2022/07/07 11:44:25;;;;;;;4.13;1.20;;;;;;;;;;4955715;29;20059;-76
2022/07/07 11:47:11;;;;;;;0.80;0.80;;;;;;;;;;4956053;29;20043;-76
2022/07/07 11:49:57;;;;;;;1.17;1.02;;;;;;;;;;4956430;29;20051;-76
2022/07/07 11:52:59;;;;;;;1.40;0.98;;;;;;;;;;4955728;29;20043;-76
2022/07/07 11:55:45;;;;;;;1.42;1.10;;;;;;;;;;4955742;29;20043;-75
2022/07/07 11:58:31;;;;;;;4.15;1.00;;;;;;;;;;4955688;29;20047;-76
2022/07/07 12:01:16;;;;;;;2.20;1.13;;;;;;;;;;4955796;29;20058;-75
2022/07/07 12:04:15;;;;;;;2.65;1.30;;;;;;;;;;4955352;29;20043;-75
2022/07/07 12:07:02;;;;;;;3.63;1.42;;;;;;;;;;4955600;29;20401;-76
2022/07/07 12:09:47;;;;;;;2.65;1.10;;;;;;;;;;4955685;29;20051;-76
2022/07/07 12:12:33;;;;;;;1.48;0.93;;;;;;;;;;4955412;29;20051;-76
2022/07/07 12:15:18;;;;;;;3.17;1.30;;;;;;;;;;4955535;29;20055;-76
2022/07/07 12:18:05;;;;;;;5.20;1.45;;;;;;;;;;4961737;28;20051;-76
2022/07/07 12:21:00;;;;;;;0.70;0.70;;;;;;;;;;4955632;29;20043;-76
2022/07/07 12:23:45;;;;;;;1.93;1.10;;;;;;;;;;4954500;29;20051;-76
2022/07/07 12:26:42;;;;;;;1.42;0.93;;;;;;;;;;4953332;29;20047;-76
2022/07/07 12:29:27;;;;;;;2.53;1.10;;;;;;;;;;4955237;29;20039;-76
2022/07/07 12:32:23;;;;;;;2.28;1.10;;;;;;;;;;4947126;28;20050;-75
2022/07/07 12:35:08;;;;;;;2.47;1.00;;;;;;;;;;4955148;29;20043;-77
2022/07/07 12:37:54;;;;;;;1.27;1.00;;;;;;;;;;4955293;29;20401;-77
2022/07/07 12:40:41;;;;;;;4.50;0.90;;;;;;;;;;4955341;29;20397;-77
2022/07/07 12:43:33;;;;;;;1.85;1.10;;;;;;;;;;4954613;29;20501;-76
2022/07/07 12:46:19;;;;;;;2.47;1.00;;;;;;;;;;4955207;29;20047;-77
2022/07/07 12:49:06;;;;;;;2.65;1.13;;;;;;;;;;4955571;29;20039;-76
2022/07/07 12:51:54;;;;;;;1.25;0.93;;;;;;;;;;4955251;29;20055;-76
2022/07/07 12:54:39;;;;;;;3.97;1.00;;;;;;;;;;4955097;29;20051;-76
2022/07/07 12:57:29;;;;;;;6.32;1.65;;;;;;;;;;4955127;29;20051;-76
2022/07/07 13:00:25;;;;;;;1.90;1.10;;;;;;;;;;4955306;29;20047;-75
2022/07/07 13:03:11;;;;;;;1.85;0.80;;;;;;;;;;4955491;29;20409;-75
2022/07/07 13:05:59;;;;;;;5.63;1.17;;;;;;;;;;4955373;29;20047;-75
2022/07/07 13:08:47;;;;;;;2.20;1.00;;;;;;;;;;4955203;29;20051;-75
2022/07/07 13:11:33;;;;;;;6.28;1.25;;;;;;;;;;4954576;29;20047;-76
2022/07/07 13:14:19;;;;;;;3.47;1.08;;;;;;;;;;4953169;29;20043;-77
2022/07/07 13:17:05;;;;;;;1.38;0.82;;;;;;;;;;4960010;29;20043;-77
2022/07/07 13:19:51;;;;;;;3.00;0.98;;;;;;;;;;4960967;29;20047;-76
2022/07/07 13:22:36;;;;;;;4.38;1.55;;;;;;;;;;4953568;29;20043;-76
2022/07/07 13:25:22;;;;;;;1.52;0.93;;;;;;;;;;4954341;29;20051;-77
2022/07/07 13:28:07;;;;;;;4.72;1.02;;;;;;;;;;4956666;29;20051;-77
2022/07/07 13:30:54;;;;;;;5.63;1.33;;;;;;;;;;4954705;29;20047;-76
2022/07/07 13:33:39;;;;;;;1.20;1.02;;;;;;;;;;4954669;29;20073;-76
2022/07/07 13:36:25;;;;;;;1.10;0.90;;;;;;;;;;4954612;29;20039;-75
2022/07/07 13:39:11;;;;;;;7.80;1.10;;;;;;;;;;4954731;29;20043;-76
2022/07/07 13:41:56;;;;;;;2.30;0.90;;;;;;;;;;4956197;28;20047;-76
2022/07/07 13:44:43;;;;;;;8.93;1.20;;;;;;;;;;4957465;29;20059;-76
2022/07/07 13:47:28;;;;;;;2.25;1.23;;;;;;;;;;4957926;29;20055;-75
2022/07/07 13:50:14;;;;;;;1.27;0.77;;;;;;;;;;4958065;29;20047;-75
2022/07/07 13:52:59;;;;;;;5.75;1.05;;;;;;;;;;4950052;28;20051;-76
2022/07/07 13:55:45;;;;;;;1.75;1.10;;;;;;;;;;4957773;29;20039;-76
2022/07/07 13:58:31;;;;;;;0.82;0.70;;;;;;;;;;4958140;29;20046;-76
2022/07/07 14:01:16;;;;;;;4.35;1.00;;;;;;;;;;4957733;29;20517;-75
2022/07/07 14:04:02;;;;;;;2.80;1.15;;;;;;;;;;4964184;28;20043;-75
2022/07/07 14:06:47;;;;;;;2.17;1.05;;;;;;;;;;4957913;29;20051;-75
2022/07/07 14:09:33;;;;;;;2.30;1.25;;;;;;;;;;4957838;29;20051;-75
2022/07/07 14:12:19;;;;;;;1.13;1.02;;;;;;;;;;4957577;29;20047;-75
2022/07/07 14:15:05;;;;;;;3.22;1.00;;;;;;;;;;4957625;29;20047;-76
2022/07/07 14:17:51;;;;;;;1.10;1.00;;;;;;;;;;4957296;29;20047;-78
2022/07/07 14:20:37;;;;;;;3.85;1.40;;;;;;;;;;4957427;29;20051;-76
2022/07/07 14:23:22;;;;;;;2.10;1.40;;;;;;;;;;4957206;29;20055;-77
2022/07/07 14:26:07;;;;;;;3.38;1.50;;;;;;;;;;4957374;29;20047;-76
2022/07/07 14:28:53;;;;;;;4.78;1.30;;;;;;;;;;4957555;29;20392;-76
2022/07/07 14:31:39;;;;;;;3.25;1.17;;;;;;;;;;4957353;29;20051;-76
2022/07/07 14:34:26;;;;;;;1.90;0.82;;;;;;;;;;4957401;29;20035;-76
2022/07/07 14:37:11;;;;;;;1.58;1.00;;;;;;;;;;4963820;28;20047;-76
2022/07/07 14:39:56;;;;;;;1.00;0.90;;;;;;;;;;4957049;29;20043;-77
2022/07/07 14:42:42;;;;;;;6.25;1.30;;;;;;;;;;4956891;29;20401;-77
2022/07/07 14:45:27;;;;;;;3.33;1.20;;;;;;;;;;4956982;29;20086;-76
2022/07/07 14:48:13;;;;;;;1.60;1.00;;;;;;;;;;4957312;29;20059;-77
2022/07/07 14:50:59;;;;;;;1.63;0.85;;;;;;;;;;4957049;29;20043;-76
2022/07/07 14:53:44;;;;;;;1.25;1.05;;;;;;;;;;4956536;28;20051;-77
2022/07/07 14:56:30;;;;;;;1.40;1.10;;;;;;;;;;4957090;29;20050;-76
2022/07/07 14:59:15;;;;;;;2.28;1.20;;;;;;;;;;4956948;29;20059;-76
2022/07/07 15:02:01;;;;;;;1.50;1.00;;;;;;;;;;4957041;29;20051;-75
2022/07/07 15:04:47;;;;;;;3.75;1.00;;;;;;;;;;4957245;29;20039;-76
2022/07/07 15:07:32;;;;;;;3.17;1.30;;;;;;;;;;4956569;29;20055;-76
2022/07/07 15:10:18;;;;;;;2.10;1.05;;;;;;;;;;4956478;29;20047;-76
2022/07/07 15:13:04;;;;;;;2.72;1.00;;;;;;;;;;4956771;29;20043;-76
2022/07/07 15:15:50;;;;;;;3.38;1.00;;;;;;;;;;4956613;29;20047;-76
2022/07/07 15:18:36;;;;;;;1.52;1.00;;;;;;;;;;4956688;29;20051;-76
2022/07/07 15:21:21;;;;;;;1.90;1.00;;;;;;;;;;4956508;29;20485;-76
2022/07/07 15:24:07;;;;;;;3.28;1.15;;;;;;;;;;4956082;29;20039;-76
2022/07/07 15:26:52;;;;;;;3.33;0.93;;;;;;;;;;4956213;29;20043;-76
2022/07/07 15:29:38;;;;;;;4.28;1.30;;;;;;;;;;4956341;29;20401;-76
2022/07/07 15:32:24;;;;;;;1.85;1.30;;;;;;;;;;4956396;29;20043;-76
2022/07/07 15:35:10;;;;;;;3.25;1.20;;;;;;;;;;4956244;29;20051;-76
2022/07/07 15:37:55;;;;;;;7.10;1.52;;;;;;;;;;4956246;29;20385;-76
2022/07/07 15:40:41;;;;;;;1.45;1.10;;;;;;;;;;4956229;29;20051;-77
2022/07/07 15:43:27;;;;;;;5.03;1.52;;;;;;;;;;4955668;29;20039;-75
2022/07/07 15:46:15;;;;;;;3.13;1.10;;;;;;;;;;4955828;29;20047;-76
2022/07/07 15:49:00;;;;;;;2.85;1.10;;;;;;;;;;4955804;29;20063;-77
2022/07/07 15:51:47;;;;;;;3.88;1.30;;;;;;;;;;4955990;29;20047;-76
2022/07/07 15:54:33;;;;;;;4.53;1.17;;;;;;;;;;4955687;29;20043;-76
2022/07/07 15:57:19;;;;;;;1.40;1.30;;;;;;;;;;4955766;29;20481;-77
2022/07/07 16:00:05;;;;;;;3.63;1.08;;;;;;;;;;4955791;29;20043;-75
2022/07/07 16:02:52;;;;;;;2.70;1.20;;;;;;;;;;4955544;29;20047;-75
2022/07/07 16:05:37;;;;;;;1.23;1.10;;;;;;;;;;4955182;28;20493;-77
2022/07/07 16:08:23;;;;;;;1.73;1.20;;;;;;;;;;4955495;29;20051;-77
2022/07/07 16:11:10;;;;;;;2.63;0.98;;;;;;;;;;4955440;29;20481;-77
2022/07/07 16:13:56;;;;;;;2.28;1.20;;;;;;;;;;4955733;29;20039;-76
2022/07/07 16:16:42;;;;;;;6.75;1.60;;;;;;;;;;4955485;29;20043;-76
2022/07/07 16:19:28;;;;;;;3.97;1.42;;;;;;;;;;4955566;29;20482;-76
2022/07/07 16:22:13;;;;;;;4.90;1.80;;;;;;;;;;4955693;29;20047;-76
2022/07/07 16:24:58;;;;;;;5.15;1.60;;;;;;;;;;4955290;29;20043;-76
2022/07/07 16:27:43;;;;;;;4.38;1.65;;;;;;;;;;4955094;29;20043;-76
2022/07/07 16:30:29;;;;;;;2.47;1.52;;;;;;;;;;4955616;29;20477;-76
2022/07/07 16:33:14;;;;;;;5.68;1.40;;;;;;;;;;4955408;29;20039;-77
2022/07/07 16:36:00;;;;;;;5.20;1.50;;;;;;;;;;4955375;29;20051;-77
2022/07/07 16:38:46;;;;;;;3.28;1.77;;;;;;;;;;4955434;29;20408;-77
2022/07/07 16:41:32;;;;;;;4.47;1.30;;;;;;;;;;4955454;29;20397;-78
2022/07/07 16:44:17;;;;;;;3.53;1.60;;;;;;;;;;4954297;29;20055;-77